sensor_id;sensor_type;location;lat;lon;timestamp;pressure;altitude;pressure_sealevel;temperature;humidity
50774;BME280;36745;48.544;8.918;2023-04-29T00:01:52;97068.94;;;10.50;100.00
50774;BME280;36745;48.544;8.918;2023-04-29T00:05:17;97069.78;;;10.47;100.00
50774;BME280;36745;48.544;8.918;2023-04-29T00:08:36;97062.00;;;10.46;100.00
50774;BME280;36745;48.544;8.918;2023-04-29T00:11:56;97064.53;;;10.40;100.00
50774;BME280;36745;48.544;8.918;2023-04-29T00:15:16;97058.69;;;10.38;100.00
50774;BME280;36745;48.544;8.918;2023-04-29T00:18:36;97057.72;;;10.32;100.00
50774;BME280;36745;48.544;8.918;2023-04-29T00:21:56;97067.19;;;10.31;100.00
50774;BME280;36745;48.544;8.918;2023-04-29T00:25:16;97056.63;;;10.30;100.00
50774;BME280;36745;48.544;8.918;2023-04-29T00:28:36;97060.63;;;10.16;100.00
50774;BME280;36745;48.544;8.918;2023-04-29T00:31:55;97065.44;;;10.12;100.00
50774;BME280;36745;48.544;8.918;2023-04-29T00:35:15;97059.59;;;10.10;100.00
50774;BME280;36745;48.544;8.918;2023-04-29T00:38:35;97060.16;;;10.05;100.00
50774;BME280;36745;48.544;8.918;2023-04-29T00:41:55;97065.38;;;10.03;100.00
50774;BME280;36745;48.544;8.918;2023-04-29T00:45:14;97065.44;;;10.12;100.00
50774;BME280;36745;48.544;8.918;2023-04-29T00:48:34;97061.50;;;10.00;100.00
50774;BME280;36745;48.544;8.918;2023-04-29T00:51:55;97065.25;;;9.94;100.00
50774;BME280;36745;48.544;8.918;2023-04-29T00:55:16;97065.25;;;9.94;100.00
50774;BME280;36745;48.544;8.918;2023-04-29T00:58:36;97074.84;;;9.89;100.00
50774;BME280;36745;48.544;8.918;2023-04-29T01:02:03;97085.97;;;9.86;100.00
50774;BME280;36745;48.544;8.918;2023-04-29T01:05:24;97075.81;;;9.83;100.00
50774;BME280;36745;48.544;8.918;2023-04-29T01:09:02;97069.66;;;9.79;100.00
50774;BME280;36745;48.544;8.918;2023-04-29T01:16:01;97064.16;;;9.53;100.00
50774;BME280;36745;48.544;8.918;2023-04-29T01:23:00;97057.75;;;9.31;100.00
50774;BME280;36745;48.544;8.918;2023-04-29T01:26:24;97060.97;;;9.42;100.00
50774;BME280;36745;48.544;8.918;2023-04-29T01:33:40;97061.63;;;9.46;100.00
50774;BME280;36745;48.544;8.918;2023-04-29T01:37:27;97065.81;;;9.38;100.00
50774;BME280;36745;48.544;8.918;2023-04-29T01:40:47;97061.84;;;9.39;100.00
50774;BME280;36745;48.544;8.918;2023-04-29T01:44:17;97063.69;;;9.17;100.00
50774;BME280;36745;48.544;8.918;2023-04-29T01:47:38;97061.94;;;9.23;100.00
50774;BME280;36745;48.544;8.918;2023-04-29T01:50:59;97060.38;;;9.35;100.00
50774;BME280;36745;48.544;8.918;2023-04-29T01:54:20;97066.34;;;9.33;100.00
50774;BME280;36745;48.544;8.918;2023-04-29T01:57:41;97065.66;;;9.29;100.00
50774;BME280;36745;48.544;8.918;2023-04-29T02:01:00;97060.06;;;9.33;100.00
50774;BME280;36745;48.544;8.918;2023-04-29T02:04:20;97063.69;;;9.17;100.00
50774;BME280;36745;48.544;8.918;2023-04-29T02:07:40;97063.13;;;9.22;100.00
50774;BME280;36745;48.544;8.918;2023-04-29T02:11:01;97059.25;;;9.07;100.00
50774;BME280;36745;48.544;8.918;2023-04-29T02:14:20;97064.84;;;9.03;100.00
50774;BME280;36745;48.544;8.918;2023-04-29T02:17:40;97061.44;;;8.99;100.00
50774;BME280;36745;48.544;8.918;2023-04-29T02:21:00;97062.31;;;9.09;100.00
50774;BME280;36745;48.544;8.918;2023-04-29T02:24:20;97067.22;;;8.89;100.00
50774;BME280;36745;48.544;8.918;2023-04-29T02:27:40;97067.53;;;8.78;100.00
50774;BME280;36745;48.544;8.918;2023-04-29T02:31:00;97063.59;;;8.92;100.00
50774;BME280;36745;48.544;8.918;2023-04-29T02:34:20;97066.69;;;8.94;100.00
50774;BME280;36745;48.544;8.918;2023-04-29T02:37:40;97073.53;;;9.02;100.00
50774;BME280;36745;48.544;8.918;2023-04-29T02:40:59;97072.53;;;8.96;100.00
50774;BME280;36745;48.544;8.918;2023-04-29T02:44:19;97068.25;;;8.95;100.00
50774;BME280;36745;48.544;8.918;2023-04-29T02:47:39;97067.09;;;8.79;100.00
50774;BME280;36745;48.544;8.918;2023-04-29T02:50:59;97065.88;;;8.80;100.00
50774;BME280;36745;48.544;8.918;2023-04-29T02:54:18;97065.09;;;8.80;100.00
50774;BME280;36745;48.544;8.918;2023-04-29T02:57:38;97059.38;;;8.74;100.00
50774;BME280;36745;48.544;8.918;2023-04-29T03:00:59;97066.63;;;8.68;100.00
50774;BME280;36745;48.544;8.918;2023-04-29T03:04:19;97071.41;;;8.64;100.00
50774;BME280;36745;48.544;8.918;2023-04-29T03:07:38;97067.66;;;8.58;100.00
50774;BME280;36745;48.544;8.918;2023-04-29T03:10:58;97073.84;;;8.62;100.00
50774;BME280;36745;48.544;8.918;2023-04-29T03:14:18;97072.63;;;8.63;100.00
50774;BME280;36745;48.544;8.918;2023-04-29T03:17:38;97068.53;;;8.55;100.00
50774;BME280;36745;48.544;8.918;2023-04-29T03:20:58;97066.97;;;8.54;100.00
50774;BME280;36745;48.544;8.918;2023-04-29T03:24:18;97065.13;;;8.64;100.00
50774;BME280;36745;48.544;8.918;2023-04-29T03:27:38;97065.41;;;8.53;100.00
50774;BME280;36745;48.544;8.918;2023-04-29T03:30:57;97064.50;;;8.43;100.00
50774;BME280;36745;48.544;8.918;2023-04-29T03:34:18;97061.97;;;8.36;100.00
50774;BME280;36745;48.544;8.918;2023-04-29T03:37:37;97063.19;;;8.48;100.00
50774;BME280;36745;48.544;8.918;2023-04-29T03:40:57;97053.97;;;8.42;100.00
50774;BME280;36745;48.544;8.918;2023-04-29T03:44:17;97048.28;;;8.49;100.00
50774;BME280;36745;48.544;8.918;2023-04-29T03:47:36;97057.03;;;8.44;100.00
50774;BME280;36745;48.544;8.918;2023-04-29T03:50:56;97049.91;;;8.47;100.00
50774;BME280;36745;48.544;8.918;2023-04-29T03:54:16;97044.72;;;8.36;100.00
50774;BME280;36745;48.544;8.918;2023-04-29T03:57:36;97045.81;;;8.22;100.00
50774;BME280;36745;48.544;8.918;2023-04-29T04:00:55;97053.47;;;8.31;100.00
50774;BME280;36745;48.544;8.918;2023-04-29T04:04:15;97044.53;;;8.11;100.00
50774;BME280;36745;48.544;8.918;2023-04-29T04:07:35;97059.47;;;8.10;100.00
50774;BME280;36745;48.544;8.918;2023-04-29T04:10:55;97061.69;;;8.15;100.00
50774;BME280;36745;48.544;8.918;2023-04-29T04:14:21;97057.94;;;8.09;100.00
50774;BME280;36745;48.544;8.918;2023-04-29T04:17:40;97056.22;;;8.15;100.00
50774;BME280;36745;48.544;8.918;2023-04-29T04:21:05;97063.94;;;8.04;100.00
50774;BME280;36745;48.544;8.918;2023-04-29T04:24:25;97062.81;;;8.01;100.00
50774;BME280;36745;48.544;8.918;2023-04-29T04:27:44;97067.53;;;8.00;100.00
50774;BME280;36745;48.544;8.918;2023-04-29T04:31:04;97069.94;;;7.98;100.00
50774;BME280;36745;48.544;8.918;2023-04-29T04:34:24;97081.09;;;8.08;100.00
50774;BME280;36745;48.544;8.918;2023-04-29T04:37:45;97082.63;;;7.92;100.00
50774;BME280;36745;48.544;8.918;2023-04-29T04:41:06;97090.00;;;7.95;100.00
50774;BME280;36745;48.544;8.918;2023-04-29T04:44:26;97091.53;;;7.96;100.00
50774;BME280;36745;48.544;8.918;2023-04-29T04:47:46;97085.69;;;7.94;100.00
50774;BME280;36745;48.544;8.918;2023-04-29T04:51:10;97111.38;;;7.88;100.00
50774;BME280;36745;48.544;8.918;2023-04-29T04:54:30;97100.03;;;7.86;100.00
50774;BME280;36745;48.544;8.918;2023-04-29T04:57:50;97104.06;;;7.97;100.00
50774;BME280;36745;48.544;8.918;2023-04-29T05:01:10;97102.63;;;8.09;100.00
50774;BME280;36745;48.544;8.918;2023-04-29T05:04:29;97107.34;;;8.25;100.00
50774;BME280;36745;48.544;8.918;2023-04-29T05:07:49;97114.22;;;8.33;100.00
50774;BME280;36745;48.544;8.918;2023-04-29T05:11:16;97124.84;;;8.92;100.00
50774;BME280;36745;48.544;8.918;2023-04-29T05:14:36;97123.84;;;9.82;100.00
50774;BME280;36745;48.544;8.918;2023-04-29T05:17:56;97139.28;;;11.11;100.00
50774;BME280;36745;48.544;8.918;2023-04-29T05:21:16;97122.13;;;12.22;100.00
50774;BME280;36745;48.544;8.918;2023-04-29T05:24:36;97127.16;;;12.81;100.00
50774;BME280;36745;48.544;8.918;2023-04-29T05:27:56;97126.13;;;13.24;100.00
50774;BME280;36745;48.544;8.918;2023-04-29T05:31:15;97133.00;;;12.74;100.00
50774;BME280;36745;48.544;8.918;2023-04-29T05:34:35;97149.22;;;12.36;100.00
50774;BME280;36745;48.544;8.918;2023-04-29T05:37:55;97141.59;;;12.76;100.00
50774;BME280;36745;48.544;8.918;2023-04-29T05:41:14;97147.16;;;12.85;100.00
50774;BME280;36745;48.544;8.918;2023-04-29T05:44:34;97152.09;;;13.18;100.00
50774;BME280;36745;48.544;8.918;2023-04-29T05:47:54;97161.50;;;13.38;100.00
50774;BME280;36745;48.544;8.918;2023-04-29T05:51:14;97165.94;;;13.54;100.00
50774;BME280;36745;48.544;8.918;2023-04-29T05:54:34;97169.00;;;13.01;100.00
50774;BME280;36745;48.544;8.918;2023-04-29T05:57:53;97173.19;;;13.42;100.00
50774;BME280;36745;48.544;8.918;2023-04-29T06:01:14;97187.75;;;13.79;100.00
50774;BME280;36745;48.544;8.918;2023-04-29T06:04:35;97191.19;;;13.20;100.00
50774;BME280;36745;48.544;8.918;2023-04-29T06:07:56;97193.16;;;13.56;100.00
50774;BME280;36745;48.544;8.918;2023-04-29T06:11:16;97196.31;;;14.00;100.00
50774;BME280;36745;48.544;8.918;2023-04-29T06:14:36;97210.03;;;14.54;100.00
50774;BME280;36745;48.544;8.918;2023-04-29T06:17:56;97207.06;;;14.91;100.00
50774;BME280;36745;48.544;8.918;2023-04-29T06:21:16;97215.59;;;15.11;100.00
50774;BME280;36745;48.544;8.918;2023-04-29T06:24:36;97217.97;;;15.42;100.00
50774;BME280;36745;48.544;8.918;2023-04-29T06:27:56;97224.56;;;15.53;100.00
50774;BME280;36745;48.544;8.918;2023-04-29T06:31:16;97229.84;;;15.42;100.00
50774;BME280;36745;48.544;8.918;2023-04-29T06:34:36;97230.81;;;15.63;100.00
50774;BME280;36745;48.544;8.918;2023-04-29T06:37:57;97234.66;;;15.42;96.73
50774;BME280;36745;48.544;8.918;2023-04-29T06:41:17;97225.72;;;15.76;99.38
50774;BME280;36745;48.544;8.918;2023-04-29T06:44:37;97228.25;;;15.89;97.29
50774;BME280;36745;48.544;8.918;2023-04-29T06:47:57;97233.44;;;15.96;93.58
50774;BME280;36745;48.544;8.918;2023-04-29T06:51:17;97234.97;;;15.97;92.65
50774;BME280;36745;48.544;8.918;2023-04-29T06:54:37;97227.88;;;16.11;93.17
50774;BME280;36745;48.544;8.918;2023-04-29T06:57:56;97240.59;;;15.88;88.31
50774;BME280;36745;48.544;8.918;2023-04-29T07:01:16;97238.38;;;15.77;88.83
50774;BME280;36745;48.544;8.918;2023-04-29T07:04:36;97247.03;;;15.94;90.56
50774;BME280;36745;48.544;8.918;2023-04-29T07:07:56;97244.56;;;15.96;87.64
50774;BME280;36745;48.544;8.918;2023-04-29T07:11:16;97239.75;;;15.97;88.38
50774;BME280;36745;48.544;8.918;2023-04-29T07:14:36;97252.69;;;16.00;86.51
50774;BME280;36745;48.544;8.918;2023-04-29T07:17:56;97255.69;;;16.25;86.35
50774;BME280;36745;48.544;8.918;2023-04-29T07:21:15;97251.56;;;16.35;83.90
50774;BME280;36745;48.544;8.918;2023-04-29T07:24:35;97249.84;;;16.23;82.59
50774;BME280;36745;48.544;8.918;2023-04-29T07:27:55;97251.28;;;16.33;78.13
50774;BME280;36745;48.544;8.918;2023-04-29T07:31:15;97261.63;;;16.18;79.77
50774;BME280;36745;48.544;8.918;2023-04-29T07:34:36;97263.34;;;16.30;80.84
50774;BME280;36745;48.544;8.918;2023-04-29T07:37:55;97268.53;;;16.23;79.60
50774;BME280;36745;48.544;8.918;2023-04-29T07:41:15;97274.47;;;16.01;79.96
50774;BME280;36745;48.544;8.918;2023-04-29T07:44:35;97274.09;;;16.08;78.83
50774;BME280;36745;48.544;8.918;2023-04-29T07:47:54;97267.06;;;15.98;78.27
50774;BME280;36745;48.544;8.918;2023-04-29T07:51:14;97275.63;;;16.09;79.25
50774;BME280;36745;48.544;8.918;2023-04-29T07:54:37;97265.38;;;16.15;78.38
50774;BME280;36745;48.544;8.918;2023-04-29T07:57:57;97268.44;;;16.03;77.88
50774;BME280;36745;48.544;8.918;2023-04-29T08:01:17;97271.47;;;15.90;77.20
50774;BME280;36745;48.544;8.918;2023-04-29T08:04:40;97267.94;;;16.04;76.92
50774;BME280;36745;48.544;8.918;2023-04-29T08:08:00;97269.00;;;16.21;75.21
50774;BME280;36745;48.544;8.918;2023-04-29T08:11:20;97264.41;;;16.48;75.79
50774;BME280;36745;48.544;8.918;2023-04-29T08:14:43;97268.94;;;16.60;74.68
50774;BME280;36745;48.544;8.918;2023-04-29T08:18:02;97269.88;;;16.57;72.43
50774;BME280;36745;48.544;8.918;2023-04-29T08:21:22;97267.09;;;16.71;71.72
50774;BME280;36745;48.544;8.918;2023-04-29T08:24:42;97266.75;;;16.99;73.52
50774;BME280;36745;48.544;8.918;2023-04-29T08:28:03;97269.94;;;16.92;68.43
50774;BME280;36745;48.544;8.918;2023-04-29T08:31:23;97282.34;;;16.47;69.07
50774;BME280;36745;48.544;8.918;2023-04-29T08:34:44;97272.94;;;16.88;70.38
50774;BME280;36745;48.544;8.918;2023-04-29T08:38:04;97275.91;;;17.19;69.63
50774;BME280;36745;48.544;8.918;2023-04-29T08:41:24;97272.50;;;17.30;69.43
50774;BME280;36745;48.544;8.918;2023-04-29T08:44:45;97275.75;;;17.08;65.65
50774;BME280;36745;48.544;8.918;2023-04-29T08:48:05;97274.69;;;16.71;68.58
50774;BME280;36745;48.544;8.918;2023-04-29T08:51:25;97282.94;;;16.51;68.04
50774;BME280;36745;48.544;8.918;2023-04-29T08:54:45;97281.97;;;16.83;69.07
50774;BME280;36745;48.544;8.918;2023-04-29T08:58:04;97275.81;;;16.79;66.99
50774;BME280;36745;48.544;8.918;2023-04-29T09:01:29;97275.97;;;16.90;67.76
50774;BME280;36745;48.544;8.918;2023-04-29T09:05:08;97268.59;;;16.87;65.81
50774;BME280;36745;48.544;8.918;2023-04-29T09:08:29;97276.97;;;16.58;67.21
50774;BME280;36745;48.544;8.918;2023-04-29T09:11:51;97263.50;;;16.86;68.08
50774;BME280;36745;48.544;8.918;2023-04-29T09:15:11;97262.53;;;17.44;68.99
50774;BME280;36745;48.544;8.918;2023-04-29T09:22:04;97276.44;;;17.03;65.97
50774;BME280;36745;48.544;8.918;2023-04-29T09:25:27;97273.41;;;17.22;65.20
50774;BME280;36745;48.544;8.918;2023-04-29T09:29:13;97260.81;;;17.67;62.33
50774;BME280;36745;48.544;8.918;2023-04-29T09:32:36;97265.97;;;18.45;63.06
50774;BME280;36745;48.544;8.918;2023-04-29T09:35:56;97268.09;;;18.88;63.83
50774;BME280;36745;48.544;8.918;2023-04-29T09:39:17;97272.03;;;19.07;60.01
50774;BME280;36745;48.544;8.918;2023-04-29T09:42:43;97275.50;;;18.59;60.30
50774;BME280;36745;48.544;8.918;2023-04-29T09:46:03;97278.31;;;17.67;60.60
50774;BME280;36745;48.544;8.918;2023-04-29T09:52:43;97267.38;;;17.43;60.50
50774;BME280;36745;48.544;8.918;2023-04-29T09:56:03;97279.06;;;17.47;60.08
50774;BME280;36745;48.544;8.918;2023-04-29T09:59:24;97275.06;;;17.34;60.46
50774;BME280;36745;48.544;8.918;2023-04-29T10:02:48;97271.22;;;17.86;60.77
50774;BME280;36745;48.544;8.918;2023-04-29T10:06:08;97275.66;;;17.58;59.73
50774;BME280;36745;48.544;8.918;2023-04-29T10:09:28;97273.81;;;17.55;59.99
50774;BME280;36745;48.544;8.918;2023-04-29T10:12:53;97274.34;;;17.53;59.97
50774;BME280;36745;48.544;8.918;2023-04-29T10:16:27;97278.44;;;17.58;58.86
50774;BME280;36745;48.544;8.918;2023-04-29T10:19:51;97276.91;;;17.77;59.71
50774;BME280;36745;48.544;8.918;2023-04-29T10:23:14;97279.69;;;17.37;58.46
50774;BME280;36745;48.544;8.918;2023-04-29T10:26:35;97274.44;;;17.44;58.99
50774;BME280;36745;48.544;8.918;2023-04-29T10:29:57;97270.63;;;17.42;58.66
50774;BME280;36745;48.544;8.918;2023-04-29T10:33:17;97280.22;;;17.00;59.10
50774;BME280;36745;48.544;8.918;2023-04-29T10:36:37;97269.53;;;17.54;60.18
50774;BME280;36745;48.544;8.918;2023-04-29T10:43:34;97264.19;;;18.74;59.55
50774;BME280;36745;48.544;8.918;2023-04-29T10:47:22;97258.31;;;19.46;58.51
50774;BME280;36745;48.544;8.918;2023-04-29T10:54:09;97258.16;;;18.24;55.83
50774;BME280;36745;48.544;8.918;2023-04-29T10:57:31;97255.31;;;17.72;56.69
50774;BME280;36745;48.544;8.918;2023-04-29T11:00:51;97260.31;;;18.14;56.82
50774;BME280;36745;48.544;8.918;2023-04-29T11:04:12;97259.59;;;19.08;56.70
50774;BME280;36745;48.544;8.918;2023-04-29T11:07:31;97253.41;;;19.35;55.33
50774;BME280;36745;48.544;8.918;2023-04-29T11:10:52;97257.59;;;18.77;53.73
50774;BME280;36745;48.544;8.918;2023-04-29T11:14:13;97257.09;;;17.95;55.04
50774;BME280;36745;48.544;8.918;2023-04-29T11:17:36;97256.97;;;17.44;55.56
50774;BME280;36745;48.544;8.918;2023-04-29T11:24:25;97245.06;;;18.10;57.44
50774;BME280;36745;48.544;8.918;2023-04-29T11:27:46;97243.28;;;19.01;56.50
50774;BME280;36745;48.544;8.918;2023-04-29T11:31:07;97254.78;;;19.08;53.63
50774;BME280;36745;48.544;8.918;2023-04-29T11:34:27;97252.22;;;19.05;53.35
50774;BME280;36745;48.544;8.918;2023-04-29T11:37:46;97245.88;;;18.41;53.86
50774;BME280;36745;48.544;8.918;2023-04-29T11:41:06;97247.00;;;18.24;54.56
50774;BME280;36745;48.544;8.918;2023-04-29T11:44:27;97253.50;;;18.15;54.59
50774;BME280;36745;48.544;8.918;2023-04-29T11:47:47;97252.28;;;17.96;55.51
50774;BME280;36745;48.544;8.918;2023-04-29T11:51:07;97258.84;;;17.93;56.50
50774;BME280;36745;48.544;8.918;2023-04-29T11:54:28;97257.09;;;17.95;56.00
50774;BME280;36745;48.544;8.918;2023-04-29T11:57:48;97264.09;;;17.85;56.44
50774;BME280;36745;48.544;8.918;2023-04-29T12:01:09;97250.69;;;17.89;56.62
50774;BME280;36745;48.544;8.918;2023-04-29T12:04:29;97256.94;;;18.04;56.05
50774;BME280;36745;48.544;8.918;2023-04-29T12:07:49;97257.09;;;17.95;56.54
50774;BME280;36745;48.544;8.918;2023-04-29T12:11:09;97257.34;;;18.18;56.87
50774;BME280;36745;48.544;8.918;2023-04-29T12:14:29;97260.22;;;18.29;55.80
50774;BME280;36745;48.544;8.918;2023-04-29T12:17:49;97256.72;;;17.62;55.47
50774;BME280;36745;48.544;8.918;2023-04-29T12:21:08;97254.59;;;17.57;56.43
50774;BME280;36745;48.544;8.918;2023-04-29T12:24:32;97258.16;;;17.78;56.18
50774;BME280;36745;48.544;8.918;2023-04-29T12:27:58;97258.22;;;17.83;56.68
50774;BME280;36745;48.544;8.918;2023-04-29T12:31:18;97256.84;;;17.73;57.40
50774;BME280;36745;48.544;8.918;2023-04-29T12:34:38;97255.47;;;17.43;56.09
50774;BME280;36745;48.544;8.918;2023-04-29T12:37:57;97255.72;;;17.45;57.24
50774;BME280;36745;48.544;8.918;2023-04-29T12:41:18;97250.06;;;17.39;56.70
50774;BME280;36745;48.544;8.918;2023-04-29T12:44:38;97256.22;;;17.43;57.10
50774;BME280;36745;48.544;8.918;2023-04-29T12:48:00;97261.59;;;17.47;56.96
50774;BME280;36745;48.544;8.918;2023-04-29T12:51:20;97260.81;;;17.26;56.32
50774;BME280;36745;48.544;8.918;2023-04-29T12:54:40;97269.00;;;17.15;55.75
50774;BME280;36745;48.544;8.918;2023-04-29T12:58:03;97268.47;;;17.51;56.21
50774;BME280;36745;48.544;8.918;2023-04-29T13:01:23;97262.84;;;17.66;55.48
50774;BME280;36745;48.544;8.918;2023-04-29T13:04:43;97274.25;;;17.88;55.52
50774;BME280;36745;48.544;8.918;2023-04-29T13:08:03;97274.75;;;17.67;55.45
50774;BME280;36745;48.544;8.918;2023-04-29T13:11:26;97272.59;;;17.76;54.55
50774;BME280;36745;48.544;8.918;2023-04-29T13:14:46;97280.94;;;17.36;54.72
50774;BME280;36745;48.544;8.918;2023-04-29T13:18:06;97281.78;;;17.42;54.99
50774;BME280;36745;48.544;8.918;2023-04-29T13:21:26;97276.75;;;17.26;54.74
50774;BME280;36745;48.544;8.918;2023-04-29T13:24:50;97278.06;;;16.95;54.49
50774;BME280;36745;48.544;8.918;2023-04-29T13:28:10;97280.56;;;17.08;55.34
50774;BME280;36745;48.544;8.918;2023-04-29T13:31:30;97281.09;;;17.27;54.87
50774;BME280;36745;48.544;8.918;2023-04-29T13:34:50;97277.59;;;17.32;54.89
50774;BME280;36745;48.544;8.918;2023-04-29T13:38:10;97287.91;;;17.26;53.40
50774;BME280;36745;48.544;8.918;2023-04-29T13:41:29;97290.81;;;17.16;54.80
50774;BME280;36745;48.544;8.918;2023-04-29T13:44:49;97289.00;;;17.13;54.55
50774;BME280;36745;48.544;8.918;2023-04-29T13:48:09;97292.69;;;16.90;54.38
50774;BME280;36745;48.544;8.918;2023-04-29T13:51:29;97300.66;;;16.97;55.06
50774;BME280;36745;48.544;8.918;2023-04-29T13:54:50;97292.06;;;16.66;54.60
50774;BME280;36745;48.544;8.918;2023-04-29T13:58:10;97300.78;;;16.88;54.77
50774;BME280;36745;48.544;8.918;2023-04-29T14:01:30;97304.00;;;17.01;54.57
50774;BME280;36745;48.544;8.918;2023-04-29T14:04:50;97300.97;;;17.19;53.87
50774;BME280;36745;48.544;8.918;2023-04-29T14:08:10;97290.22;;;17.12;53.84
50774;BME280;36745;48.544;8.918;2023-04-29T14:11:29;97299.41;;;16.98;53.86
50774;BME280;36745;48.544;8.918;2023-04-29T14:14:49;97300.91;;;17.14;55.76
50774;BME280;36745;48.544;8.918;2023-04-29T14:18:09;97308.63;;;17.04;56.97
50774;BME280;36745;48.544;8.918;2023-04-29T14:21:30;97308.66;;;16.75;58.32
50774;BME280;36745;48.544;8.918;2023-04-29T14:24:51;97310.47;;;16.63;59.08
50774;BME280;36745;48.544;8.918;2023-04-29T14:28:11;97306.19;;;16.62;60.22
50774;BME280;36745;48.544;8.918;2023-04-29T14:31:34;97310.16;;;16.91;59.99
50774;BME280;36745;48.544;8.918;2023-04-29T14:34:56;97305.78;;;16.84;59.34
50774;BME280;36745;48.544;8.918;2023-04-29T14:38:17;97318.34;;;16.65;59.63
50774;BME280;36745;48.544;8.918;2023-04-29T14:41:37;97323.06;;;16.59;60.79
50774;BME280;36745;48.544;8.918;2023-04-29T14:44:56;97341.34;;;16.21;61.94
50774;BME280;36745;48.544;8.918;2023-04-29T14:48:16;97338.47;;;16.30;62.45
50774;BME280;36745;48.544;8.918;2023-04-29T14:51:36;97340.66;;;16.12;62.00
50774;BME280;36745;48.544;8.918;2023-04-29T14:54:56;97340.19;;;15.75;63.01
50774;BME280;36745;48.544;8.918;2023-04-29T14:58:16;97345.63;;;15.69;63.38
50774;BME280;36745;48.544;8.918;2023-04-29T15:01:35;97350.22;;;15.72;62.72
50774;BME280;36745;48.544;8.918;2023-04-29T15:04:55;97353.78;;;15.73;62.36
50774;BME280;36745;48.544;8.918;2023-04-29T15:08:15;97359.75;;;15.80;62.63
50774;BME280;36745;48.544;8.918;2023-04-29T15:11:36;97368.38;;;15.49;62.78
50774;BME280;36745;48.544;8.918;2023-04-29T15:14:56;97368.44;;;15.40;62.86
50774;BME280;36745;48.544;8.918;2023-04-29T15:18:15;97369.75;;;15.30;63.65
50774;BME280;36745;48.544;8.918;2023-04-29T15:21:35;97367.81;;;15.45;64.07
50774;BME280;36745;48.544;8.918;2023-04-29T15:24:55;97374.84;;;15.65;64.73
50774;BME280;36745;48.544;8.918;2023-04-29T15:28:15;97378.72;;;15.82;64.55
50774;BME280;36745;48.544;8.918;2023-04-29T15:31:35;97377.56;;;15.41;63.45
50774;BME280;36745;48.544;8.918;2023-04-29T15:34:55;97382.69;;;15.00;64.22
50774;BME280;36745;48.544;8.918;2023-04-29T15:38:15;97384.41;;;15.31;64.74
50774;BME280;36745;48.544;8.918;2023-04-29T15:41:34;97380.16;;;15.44;65.10
50774;BME280;36745;48.544;8.918;2023-04-29T15:44:54;97388.28;;;15.24;65.11
50774;BME280;36745;48.544;8.918;2023-04-29T15:48:14;97387.09;;;15.07;65.36
50774;BME280;36745;48.544;8.918;2023-04-29T15:51:34;97391.81;;;14.83;66.44
50774;BME280;36745;48.544;8.918;2023-04-29T15:54:53;97386.59;;;14.76;66.43
50774;BME280;36745;48.544;8.918;2023-04-29T15:58:13;97402.81;;;14.68;67.02
50774;BME280;36745;48.544;8.918;2023-04-29T16:01:33;97392.81;;;14.52;68.02
50774;BME280;36745;48.544;8.918;2023-04-29T16:04:53;97400.53;;;14.57;67.38
50774;BME280;36745;48.544;8.918;2023-04-29T16:08:13;97395.59;;;14.25;67.56
50774;BME280;36745;48.544;8.918;2023-04-29T16:11:32;97398.03;;;14.23;68.10
50774;BME280;36745;48.544;8.918;2023-04-29T16:14:52;97400.97;;;14.28;67.76
50774;BME280;36745;48.544;8.918;2023-04-29T16:18:12;97396.84;;;14.51;68.13
50774;BME280;36745;48.544;8.918;2023-04-29T16:21:33;97401.91;;;14.62;67.69
50774;BME280;36745;48.544;8.918;2023-04-29T16:24:53;97402.66;;;14.62;67.56
50774;BME280;36745;48.544;8.918;2023-04-29T16:28:12;97406.66;;;14.70;67.39
50774;BME280;36745;48.544;8.918;2023-04-29T16:31:32;97411.41;;;14.79;67.96
50774;BME280;36745;48.544;8.918;2023-04-29T16:34:52;97412.38;;;14.49;68.08
50774;BME280;36745;48.544;8.918;2023-04-29T16:38:12;97415.78;;;14.44;68.10
50774;BME280;36745;48.544;8.918;2023-04-29T16:41:32;97416.56;;;14.44;68.18
50774;BME280;36745;48.544;8.918;2023-04-29T16:44:51;97426.09;;;14.34;68.28
50774;BME280;36745;48.544;8.918;2023-04-29T16:48:11;97418.06;;;14.00;68.19
50774;BME280;36745;48.544;8.918;2023-04-29T16:51:31;97430.03;;;13.87;68.72
50774;BME280;36745;48.544;8.918;2023-04-29T16:54:52;97428.81;;;13.88;68.99
50774;BME280;36745;48.544;8.918;2023-04-29T16:58:11;97433.44;;;13.92;69.67
50774;BME280;36745;48.544;8.918;2023-04-29T17:01:31;97438.69;;;13.99;69.17
50774;BME280;36745;48.544;8.918;2023-04-29T17:04:51;97442.38;;;14.05;69.09
50774;BME280;36745;48.544;8.918;2023-04-29T17:08:11;97453.47;;;13.86;69.40
50774;BME280;36745;48.544;8.918;2023-04-29T17:11:32;97448.47;;;13.72;69.90
50774;BME280;36745;48.544;8.918;2023-04-29T17:14:52;97453.75;;;13.79;69.51
50774;BME280;36745;48.544;8.918;2023-04-29T17:18:12;97451.69;;;13.62;69.88
50774;BME280;36745;48.544;8.918;2023-04-29T17:21:32;97451.22;;;13.54;70.00
50774;BME280;36745;48.544;8.918;2023-04-29T17:24:52;97453.06;;;13.57;69.97
50774;BME280;36745;48.544;8.918;2023-04-29T17:28:12;97454.72;;;13.45;70.31
50774;BME280;36745;48.544;8.918;2023-04-29T17:31:32;97452.00;;;13.24;70.83
50774;BME280;36745;48.544;8.918;2023-04-29T17:35:06;97456.28;;;13.16;71.40
50774;BME280;36745;48.544;8.918;2023-04-29T17:38:27;97458.47;;;13.21;71.76
50774;BME280;36745;48.544;8.918;2023-04-29T17:41:47;97459.09;;;13.25;71.52
50774;BME280;36745;48.544;8.918;2023-04-29T17:45:07;97466.53;;;13.37;71.54
50774;BME280;36745;48.544;8.918;2023-04-29T17:48:27;97468.38;;;13.40;71.65
50774;BME280;36745;48.544;8.918;2023-04-29T17:51:46;97465.41;;;13.25;71.83
50774;BME280;36745;48.544;8.918;2023-04-29T17:55:06;97476.28;;;13.20;71.95
50774;BME280;36745;48.544;8.918;2023-04-29T17:58:26;97481.56;;;13.27;71.75
50774;BME280;36745;48.544;8.918;2023-04-29T18:01:47;97487.69;;;13.22;71.90
50774;BME280;36745;48.544;8.918;2023-04-29T18:05:07;97477.41;;;13.22;72.10
50774;BME280;36745;48.544;8.918;2023-04-29T18:08:26;97477.69;;;13.24;72.07
50774;BME280;36745;48.544;8.918;2023-04-29T18:11:46;97478.31;;;13.28;72.24